Terminal Aerodrome Forecast
Issued by NWS

Home | Current Version | Previous Version | Text Only | Print | Product List | Glossary On
Versions: 1 2 3 4 5 6 7 8 9 10 11 12 13 14 15
000
FTUS46 KLOX 252300 RRA
TAFBUR
TAF
KBUR 252348Z 2600/2624 VRB04KT P6SM OVC150
     FM261200 VRB03KT P6SM OVC120
     FM261900 13007KT P6SM VCSH BKN070 OVC120
     FM262300 13007KT P6SM -RA BKN040 OVC080=

USA.gov is the U.S. government's official web portal to all federal, state and local government web resources and services.